sensor_id;sensor_type;location;lat;lon;timestamp;pressure;altitude;pressure_sealevel;temperature
75822;BMP180;64454;51.984;9.838;2023-09-18T00:02:19;99710.00;;;19.30
75822;BMP180;64454;51.984;9.838;2023-09-18T00:04:45;99691.00;;;19.30
75822;BMP180;64454;51.984;9.838;2023-09-18T00:07:15;99685.00;;;19.30
75822;BMP180;64454;51.984;9.838;2023-09-18T00:09:41;99681.00;;;19.40
75822;BMP180;64454;51.984;9.838;2023-09-18T00:12:08;99673.00;;;19.50
75822;BMP180;64454;51.984;9.838;2023-09-18T00:14:36;99676.00;;;19.30
75822;BMP180;64454;51.984;9.838;2023-09-18T00:17:03;99669.00;;;19.30
75822;BMP180;64454;51.984;9.838;2023-09-18T00:19:30;99665.00;;;19.20
75822;BMP180;64454;51.984;9.838;2023-09-18T00:21:59;99651.00;;;19.30
75822;BMP180;64454;51.984;9.838;2023-09-18T00:24:28;99642.00;;;19.10
75822;BMP180;64454;51.984;9.838;2023-09-18T00:26:55;99637.00;;;19.10
75822;BMP180;64454;51.984;9.838;2023-09-18T00:29:22;99640.00;;;19.30
75822;BMP180;64454;51.984;9.838;2023-09-18T00:31:49;99638.00;;;19.10
75822;BMP180;64454;51.984;9.838;2023-09-18T00:34:18;99637.00;;;19.50
75822;BMP180;64454;51.984;9.838;2023-09-18T00:36:46;99639.00;;;19.30
75822;BMP180;64454;51.984;9.838;2023-09-18T00:39:13;99639.00;;;19.20
75822;BMP180;64454;51.984;9.838;2023-09-18T00:41:43;99623.00;;;19.10
75822;BMP180;64454;51.984;9.838;2023-09-18T00:44:16;99619.00;;;19.00
75822;BMP180;64454;51.984;9.838;2023-09-18T00:46:45;99614.00;;;19.10
75822;BMP180;64454;51.984;9.838;2023-09-18T00:49:12;99602.00;;;19.20
75822;BMP180;64454;51.984;9.838;2023-09-18T00:51:40;99603.00;;;19.10
75822;BMP180;64454;51.984;9.838;2023-09-18T00:54:09;99592.00;;;18.80
75822;BMP180;64454;51.984;9.838;2023-09-18T00:56:37;99596.00;;;19.00
75822;BMP180;64454;51.984;9.838;2023-09-18T00:59:05;99595.00;;;19.00
75822;BMP180;64454;51.984;9.838;2023-09-18T01:01:32;99590.00;;;19.20
75822;BMP180;64454;51.984;9.838;2023-09-18T01:03:59;99576.00;;;19.20
75822;BMP180;64454;51.984;9.838;2023-09-18T01:06:27;99572.00;;;19.30
75822;BMP180;64454;51.984;9.838;2023-09-18T01:08:56;99571.00;;;19.40
75822;BMP180;64454;51.984;9.838;2023-09-18T01:11:34;99554.00;;;19.50
75822;BMP180;64454;51.984;9.838;2023-09-18T01:14:13;99552.00;;;19.90
75822;BMP180;64454;51.984;9.838;2023-09-18T01:16:49;99545.00;;;19.80
75822;BMP180;64454;51.984;9.838;2023-09-18T01:19:39;99546.00;;;19.80
75822;BMP180;64454;51.984;9.838;2023-09-18T01:22:08;99548.00;;;19.90
75822;BMP180;64454;51.984;9.838;2023-09-18T01:24:38;99538.00;;;19.70
75822;BMP180;64454;51.984;9.838;2023-09-18T01:27:09;99538.00;;;19.80
75822;BMP180;64454;51.984;9.838;2023-09-18T01:29:36;99537.00;;;19.80
75822;BMP180;64454;51.984;9.838;2023-09-18T01:32:04;99536.00;;;19.70
75822;BMP180;64454;51.984;9.838;2023-09-18T01:34:34;99539.00;;;19.70
75822;BMP180;64454;51.984;9.838;2023-09-18T01:37:04;99532.00;;;19.80
75822;BMP180;64454;51.984;9.838;2023-09-18T01:39:35;99539.00;;;19.60
75822;BMP180;64454;51.984;9.838;2023-09-18T01:42:04;99527.00;;;19.40
75822;BMP180;64454;51.984;9.838;2023-09-18T01:44:32;99535.00;;;19.40
75822;BMP180;64454;51.984;9.838;2023-09-18T01:47:03;99535.00;;;19.30
75822;BMP180;64454;51.984;9.838;2023-09-18T01:49:33;99539.00;;;19.00
75822;BMP180;64454;51.984;9.838;2023-09-18T01:52:01;99536.00;;;19.00
75822;BMP180;64454;51.984;9.838;2023-09-18T01:54:28;99530.00;;;19.10
75822;BMP180;64454;51.984;9.838;2023-09-18T01:56:56;99525.00;;;19.10
75822;BMP180;64454;51.984;9.838;2023-09-18T01:59:24;99535.00;;;18.80
75822;BMP180;64454;51.984;9.838;2023-09-18T02:01:52;99523.00;;;18.80
75822;BMP180;64454;51.984;9.838;2023-09-18T02:04:20;99523.00;;;19.10
75822;BMP180;64454;51.984;9.838;2023-09-18T02:06:50;99522.00;;;19.10
75822;BMP180;64454;51.984;9.838;2023-09-18T02:09:20;99524.00;;;18.90
75822;BMP180;64454;51.984;9.838;2023-09-18T02:11:47;99508.00;;;19.10
75822;BMP180;64454;51.984;9.838;2023-09-18T02:14:18;99514.00;;;19.10
75822;BMP180;64454;51.984;9.838;2023-09-18T02:16:46;99516.00;;;19.00
75822;BMP180;64454;51.984;9.838;2023-09-18T02:19:17;99515.00;;;19.00
75822;BMP180;64454;51.984;9.838;2023-09-18T02:21:46;99502.00;;;19.00
75822;BMP180;64454;51.984;9.838;2023-09-18T02:24:14;99502.00;;;19.20
75822;BMP180;64454;51.984;9.838;2023-09-18T02:26:42;99497.00;;;19.30
75822;BMP180;64454;51.984;9.838;2023-09-18T02:29:11;99492.00;;;19.10
75822;BMP180;64454;51.984;9.838;2023-09-18T02:31:41;99487.00;;;19.20
75822;BMP180;64454;51.984;9.838;2023-09-18T02:34:08;99487.00;;;19.10
75822;BMP180;64454;51.984;9.838;2023-09-18T02:36:35;99490.00;;;19.20
75822;BMP180;64454;51.984;9.838;2023-09-18T02:39:03;99489.00;;;19.10
75822;BMP180;64454;51.984;9.838;2023-09-18T02:41:30;99487.00;;;19.00
75822;BMP180;64454;51.984;9.838;2023-09-18T02:43:57;99481.00;;;19.20
75822;BMP180;64454;51.984;9.838;2023-09-18T02:46:24;99476.00;;;19.20
75822;BMP180;64454;51.984;9.838;2023-09-18T02:48:52;99468.00;;;19.20
75822;BMP180;64454;51.984;9.838;2023-09-18T02:51:19;99467.00;;;18.90
75822;BMP180;64454;51.984;9.838;2023-09-18T02:53:46;99470.00;;;19.10
75822;BMP180;64454;51.984;9.838;2023-09-18T02:56:13;99461.00;;;18.80
75822;BMP180;64454;51.984;9.838;2023-09-18T02:58:40;99463.00;;;19.00
75822;BMP180;64454;51.984;9.838;2023-09-18T03:01:07;99458.00;;;19.00
75822;BMP180;64454;51.984;9.838;2023-09-18T03:03:35;99460.00;;;18.90
75822;BMP180;64454;51.984;9.838;2023-09-18T03:06:04;99464.00;;;18.90
75822;BMP180;64454;51.984;9.838;2023-09-18T03:08:33;99464.00;;;18.80
75822;BMP180;64454;51.984;9.838;2023-09-18T03:11:00;99463.00;;;18.70
75822;BMP180;64454;51.984;9.838;2023-09-18T03:13:29;99453.00;;;18.90
75822;BMP180;64454;51.984;9.838;2023-09-18T03:15:56;99448.00;;;18.70
75822;BMP180;64454;51.984;9.838;2023-09-18T03:18:23;99450.00;;;19.00
75822;BMP180;64454;51.984;9.838;2023-09-18T03:20:50;99447.00;;;19.00
75822;BMP180;64454;51.984;9.838;2023-09-18T03:23:18;99433.00;;;18.80
75822;BMP180;64454;51.984;9.838;2023-09-18T03:25:45;99435.00;;;18.90
75822;BMP180;64454;51.984;9.838;2023-09-18T03:28:13;99447.00;;;19.00
75822;BMP180;64454;51.984;9.838;2023-09-18T03:30:40;99429.00;;;19.10
75822;BMP180;64454;51.984;9.838;2023-09-18T03:33:07;99421.00;;;19.40
75822;BMP180;64454;51.984;9.838;2023-09-18T03:35:46;99414.00;;;19.40
75822;BMP180;64454;51.984;9.838;2023-09-18T03:38:14;99410.00;;;19.10
75822;BMP180;64454;51.984;9.838;2023-09-18T03:40:42;99418.00;;;19.10
75822;BMP180;64454;51.984;9.838;2023-09-18T03:43:10;99405.00;;;19.10
75822;BMP180;64454;51.984;9.838;2023-09-18T03:45:38;99417.00;;;19.30
75822;BMP180;64454;51.984;9.838;2023-09-18T03:48:06;99405.00;;;19.50
75822;BMP180;64454;51.984;9.838;2023-09-18T03:50:33;99393.00;;;19.70
75822;BMP180;64454;51.984;9.838;2023-09-18T03:53:00;99384.00;;;19.70
75822;BMP180;64454;51.984;9.838;2023-09-18T03:55:27;99386.00;;;19.50
75822;BMP180;64454;51.984;9.838;2023-09-18T03:57:55;99372.00;;;19.70
75822;BMP180;64454;51.984;9.838;2023-09-18T04:00:22;99370.00;;;19.50
75822;BMP180;64454;51.984;9.838;2023-09-18T04:02:49;99366.00;;;19.50
75822;BMP180;64454;51.984;9.838;2023-09-18T04:05:16;99366.00;;;19.40
75822;BMP180;64454;51.984;9.838;2023-09-18T04:07:43;99373.00;;;19.30
75822;BMP180;64454;51.984;9.838;2023-09-18T04:10:12;99364.00;;;19.30
75822;BMP180;64454;51.984;9.838;2023-09-18T04:12:45;99362.00;;;19.20
75822;BMP180;64454;51.984;9.838;2023-09-18T04:15:15;99356.00;;;19.30
75822;BMP180;64454;51.984;9.838;2023-09-18T04:17:43;99353.00;;;19.10
75822;BMP180;64454;51.984;9.838;2023-09-18T04:20:11;99356.00;;;19.10
75822;BMP180;64454;51.984;9.838;2023-09-18T04:22:43;99342.00;;;19.40
75822;BMP180;64454;51.984;9.838;2023-09-18T04:25:11;99336.00;;;19.40
75822;BMP180;64454;51.984;9.838;2023-09-18T04:27:39;99330.00;;;19.20
75822;BMP180;64454;51.984;9.838;2023-09-18T04:30:08;99320.00;;;19.50
75822;BMP180;64454;51.984;9.838;2023-09-18T04:32:38;99317.00;;;19.40
75822;BMP180;64454;51.984;9.838;2023-09-18T04:35:06;99315.00;;;19.30
75822;BMP180;64454;51.984;9.838;2023-09-18T04:37:38;99295.00;;;19.50
75822;BMP180;64454;51.984;9.838;2023-09-18T04:40:07;99291.00;;;19.40
75822;BMP180;64454;51.984;9.838;2023-09-18T04:42:38;99287.00;;;19.30
75822;BMP180;64454;51.984;9.838;2023-09-18T04:45:07;99285.00;;;19.60
75822;BMP180;64454;51.984;9.838;2023-09-18T04:47:34;99277.00;;;19.60
75822;BMP180;64454;51.984;9.838;2023-09-18T04:50:03;99272.00;;;19.50
75822;BMP180;64454;51.984;9.838;2023-09-18T04:52:31;99260.00;;;19.70
75822;BMP180;64454;51.984;9.838;2023-09-18T04:54:58;99252.00;;;20.00
75822;BMP180;64454;51.984;9.838;2023-09-18T04:57:25;99268.00;;;20.00
75822;BMP180;64454;51.984;9.838;2023-09-18T04:59:51;99274.00;;;19.70
75822;BMP180;64454;51.984;9.838;2023-09-18T05:02:18;99271.00;;;19.80
75822;BMP180;64454;51.984;9.838;2023-09-18T05:04:45;99280.00;;;19.90
75822;BMP180;64454;51.984;9.838;2023-09-18T05:07:13;99318.00;;;20.00
75822;BMP180;64454;51.984;9.838;2023-09-18T05:09:40;99320.00;;;20.00
75822;BMP180;64454;51.984;9.838;2023-09-18T05:12:09;99298.00;;;19.90
75822;BMP180;64454;51.984;9.838;2023-09-18T05:14:39;99304.00;;;19.90
75822;BMP180;64454;51.984;9.838;2023-09-18T05:17:09;99288.00;;;19.90
75822;BMP180;64454;51.984;9.838;2023-09-18T05:19:37;99284.00;;;19.90
75822;BMP180;64454;51.984;9.838;2023-09-18T05:22:04;99287.00;;;20.10
75822;BMP180;64454;51.984;9.838;2023-09-18T05:24:33;99278.00;;;20.20
75822;BMP180;64454;51.984;9.838;2023-09-18T05:27:00;99276.00;;;20.30
75822;BMP180;64454;51.984;9.838;2023-09-18T05:29:28;99275.00;;;20.30
75822;BMP180;64454;51.984;9.838;2023-09-18T05:31:55;99269.00;;;20.40
75822;BMP180;64454;51.984;9.838;2023-09-18T05:34:22;99262.00;;;20.40
75822;BMP180;64454;51.984;9.838;2023-09-18T05:36:49;99254.00;;;20.40
75822;BMP180;64454;51.984;9.838;2023-09-18T05:39:18;99254.00;;;20.50
75822;BMP180;64454;51.984;9.838;2023-09-18T05:41:47;99248.00;;;20.50
75822;BMP180;64454;51.984;9.838;2023-09-18T05:44:16;99242.00;;;20.60
75822;BMP180;64454;51.984;9.838;2023-09-18T05:46:44;99240.00;;;20.60
75822;BMP180;64454;51.984;9.838;2023-09-18T05:49:11;99244.00;;;20.50
75822;BMP180;64454;51.984;9.838;2023-09-18T05:51:39;99243.00;;;20.50
75822;BMP180;64454;51.984;9.838;2023-09-18T05:54:06;99249.00;;;20.50
75822;BMP180;64454;51.984;9.838;2023-09-18T05:56:34;99233.00;;;20.50
75822;BMP180;64454;51.984;9.838;2023-09-18T05:59:02;99236.00;;;20.60
75822;BMP180;64454;51.984;9.838;2023-09-18T06:01:29;99235.00;;;20.70
75822;BMP180;64454;51.984;9.838;2023-09-18T06:03:56;99217.00;;;20.70
75822;BMP180;64454;51.984;9.838;2023-09-18T06:06:23;99205.00;;;20.60
75822;BMP180;64454;51.984;9.838;2023-09-18T06:08:51;99191.00;;;20.60
75822;BMP180;64454;51.984;9.838;2023-09-18T06:11:19;99194.00;;;20.40
75822;BMP180;64454;51.984;9.838;2023-09-18T06:13:46;99192.00;;;20.50
75822;BMP180;64454;51.984;9.838;2023-09-18T06:16:14;99186.00;;;20.50
75822;BMP180;64454;51.984;9.838;2023-09-18T06:18:41;99185.00;;;20.50
75822;BMP180;64454;51.984;9.838;2023-09-18T06:21:09;99175.00;;;20.30
75822;BMP180;64454;51.984;9.838;2023-09-18T06:23:36;99173.00;;;20.40
75822;BMP180;64454;51.984;9.838;2023-09-18T06:26:03;99169.00;;;20.60
75822;BMP180;64454;51.984;9.838;2023-09-18T06:28:30;99174.00;;;20.50
75822;BMP180;64454;51.984;9.838;2023-09-18T06:30:57;99168.00;;;20.60
75822;BMP180;64454;51.984;9.838;2023-09-18T06:33:25;99160.00;;;20.80
75822;BMP180;64454;51.984;9.838;2023-09-18T06:35:52;99163.00;;;20.60
75822;BMP180;64454;51.984;9.838;2023-09-18T06:38:20;99167.00;;;20.70
75822;BMP180;64454;51.984;9.838;2023-09-18T06:40:47;99170.00;;;20.80
75822;BMP180;64454;51.984;9.838;2023-09-18T06:43:14;99166.00;;;20.60
75822;BMP180;64454;51.984;9.838;2023-09-18T06:45:41;99159.00;;;21.10
75822;BMP180;64454;51.984;9.838;2023-09-18T06:48:07;99155.00;;;21.00
75822;BMP180;64454;51.984;9.838;2023-09-18T06:50:36;99163.00;;;21.10
75822;BMP180;64454;51.984;9.838;2023-09-18T06:53:04;99168.00;;;20.90
75822;BMP180;64454;51.984;9.838;2023-09-18T06:55:31;99175.00;;;20.90
75822;BMP180;64454;51.984;9.838;2023-09-18T06:57:58;99190.00;;;21.00
75822;BMP180;64454;51.984;9.838;2023-09-18T07:00:25;99190.00;;;20.90
75822;BMP180;64454;51.984;9.838;2023-09-18T07:02:52;99193.00;;;21.00
75822;BMP180;64454;51.984;9.838;2023-09-18T07:05:19;99180.00;;;21.10
75822;BMP180;64454;51.984;9.838;2023-09-18T07:07:47;99176.00;;;20.90
75822;BMP180;64454;51.984;9.838;2023-09-18T07:10:14;99183.00;;;21.00
75822;BMP180;64454;51.984;9.838;2023-09-18T07:12:41;99191.00;;;20.90
75822;BMP180;64454;51.984;9.838;2023-09-18T07:15:09;99196.00;;;20.90
75822;BMP180;64454;51.984;9.838;2023-09-18T07:17:36;99189.00;;;21.00
75822;BMP180;64454;51.984;9.838;2023-09-18T07:20:04;99180.00;;;20.90
75822;BMP180;64454;51.984;9.838;2023-09-18T07:22:39;99182.00;;;20.80
75822;BMP180;64454;51.984;9.838;2023-09-18T07:25:08;99182.00;;;21.00
75822;BMP180;64454;51.984;9.838;2023-09-18T07:27:35;99182.00;;;20.90
75822;BMP180;64454;51.984;9.838;2023-09-18T07:30:06;99183.00;;;20.90
75822;BMP180;64454;51.984;9.838;2023-09-18T07:32:33;99190.00;;;21.10
75822;BMP180;64454;51.984;9.838;2023-09-18T07:35:00;99181.00;;;21.20
75822;BMP180;64454;51.984;9.838;2023-09-18T07:37:27;99191.00;;;21.20
75822;BMP180;64454;51.984;9.838;2023-09-18T07:39:54;99183.00;;;21.40
75822;BMP180;64454;51.984;9.838;2023-09-18T07:42:25;99189.00;;;21.30
75822;BMP180;64454;51.984;9.838;2023-09-18T07:44:53;99193.00;;;21.40
75822;BMP180;64454;51.984;9.838;2023-09-18T07:47:20;99203.00;;;21.30
75822;BMP180;64454;51.984;9.838;2023-09-18T07:49:48;99175.00;;;21.50
75822;BMP180;64454;51.984;9.838;2023-09-18T07:52:15;99166.00;;;21.70
75822;BMP180;64454;51.984;9.838;2023-09-18T07:54:43;99176.00;;;21.60
75822;BMP180;64454;51.984;9.838;2023-09-18T07:57:10;99173.00;;;21.50
75822;BMP180;64454;51.984;9.838;2023-09-18T07:59:38;99172.00;;;21.60
75822;BMP180;64454;51.984;9.838;2023-09-18T08:02:06;99182.00;;;21.60
75822;BMP180;64454;51.984;9.838;2023-09-18T08:04:34;99190.00;;;21.60
75822;BMP180;64454;51.984;9.838;2023-09-18T08:07:01;99187.00;;;21.80
75822;BMP180;64454;51.984;9.838;2023-09-18T08:09:31;99203.00;;;21.80
75822;BMP180;64454;51.984;9.838;2023-09-18T08:12:02;99218.00;;;21.70
75822;BMP180;64454;51.984;9.838;2023-09-18T08:14:29;99219.00;;;21.80
75822;BMP180;64454;51.984;9.838;2023-09-18T08:16:58;99212.00;;;22.10
75822;BMP180;64454;51.984;9.838;2023-09-18T08:19:25;99223.00;;;21.90
75822;BMP180;64454;51.984;9.838;2023-09-18T08:21:53;99225.00;;;22.10
75822;BMP180;64454;51.984;9.838;2023-09-18T08:24:21;99234.00;;;22.20
75822;BMP180;64454;51.984;9.838;2023-09-18T08:26:49;99229.00;;;22.50
75822;BMP180;64454;51.984;9.838;2023-09-18T08:29:17;99219.00;;;22.60
75822;BMP180;64454;51.984;9.838;2023-09-18T08:31:45;99231.00;;;22.40
75822;BMP180;64454;51.984;9.838;2023-09-18T08:34:15;99216.00;;;22.90
75822;BMP180;64454;51.984;9.838;2023-09-18T08:36:43;99225.00;;;22.80
75822;BMP180;64454;51.984;9.838;2023-09-18T08:39:11;99240.00;;;23.00
75822;BMP180;64454;51.984;9.838;2023-09-18T08:41:42;99228.00;;;22.90
75822;BMP180;64454;51.984;9.838;2023-09-18T08:44:09;99236.00;;;23.00
75822;BMP180;64454;51.984;9.838;2023-09-18T08:46:37;99227.00;;;23.70
75822;BMP180;64454;51.984;9.838;2023-09-18T08:49:05;99228.00;;;23.90
75822;BMP180;64454;51.984;9.838;2023-09-18T08:51:36;99216.00;;;23.60
75822;BMP180;64454;51.984;9.838;2023-09-18T08:54:05;99219.00;;;23.80
75822;BMP180;64454;51.984;9.838;2023-09-18T08:56:33;99211.00;;;23.80
75822;BMP180;64454;51.984;9.838;2023-09-18T08:59:00;99221.00;;;23.40
75822;BMP180;64454;51.984;9.838;2023-09-18T09:01:27;99216.00;;;23.40
75822;BMP180;64454;51.984;9.838;2023-09-18T09:03:54;99216.00;;;23.50
75822;BMP180;64454;51.984;9.838;2023-09-18T09:06:21;99224.00;;;23.50
75822;BMP180;64454;51.984;9.838;2023-09-18T09:08:50;99222.00;;;23.50
75822;BMP180;64454;51.984;9.838;2023-09-18T09:11:17;99232.00;;;23.30
75822;BMP180;64454;51.984;9.838;2023-09-18T09:13:45;99234.00;;;23.00
75822;BMP180;64454;51.984;9.838;2023-09-18T09:16:13;99241.00;;;23.00
75822;BMP180;64454;51.984;9.838;2023-09-18T09:18:48;99240.00;;;23.00
75822;BMP180;64454;51.984;9.838;2023-09-18T09:21:15;99233.00;;;23.30
75822;BMP180;64454;51.984;9.838;2023-09-18T09:23:48;99235.00;;;23.30
75822;BMP180;64454;51.984;9.838;2023-09-18T09:26:20;99245.00;;;23.30
75822;BMP180;64454;51.984;9.838;2023-09-18T09:28:48;99240.00;;;23.10
75822;BMP180;64454;51.984;9.838;2023-09-18T09:31:24;99226.00;;;23.20
75822;BMP180;64454;51.984;9.838;2023-09-18T09:33:53;99238.00;;;23.10
75822;BMP180;64454;51.984;9.838;2023-09-18T09:36:22;99249.00;;;23.00
75822;BMP180;64454;51.984;9.838;2023-09-18T09:38:55;99233.00;;;23.10
75822;BMP180;64454;51.984;9.838;2023-09-18T09:41:25;99229.00;;;22.90
75822;BMP180;64454;51.984;9.838;2023-09-18T09:43:53;99218.00;;;22.90
75822;BMP180;64454;51.984;9.838;2023-09-18T09:46:21;99227.00;;;23.20
75822;BMP180;64454;51.984;9.838;2023-09-18T09:49:02;99224.00;;;23.30
75822;BMP180;64454;51.984;9.838;2023-09-18T09:51:29;99229.00;;;23.50
75822;BMP180;64454;51.984;9.838;2023-09-18T09:53:57;99225.00;;;23.70
75822;BMP180;64454;51.984;9.838;2023-09-18T09:56:42;99225.00;;;23.30
75822;BMP180;64454;51.984;9.838;2023-09-18T09:59:13;99232.00;;;23.20
75822;BMP180;64454;51.984;9.838;2023-09-18T10:01:42;99244.00;;;23.20
75822;BMP180;64454;51.984;9.838;2023-09-18T10:04:14;99234.00;;;23.20
75822;BMP180;64454;51.984;9.838;2023-09-18T10:06:51;99244.00;;;23.10
75822;BMP180;64454;51.984;9.838;2023-09-18T10:09:21;99234.00;;;23.20
75822;BMP180;64454;51.984;9.838;2023-09-18T10:11:54;99240.00;;;23.50
75822;BMP180;64454;51.984;9.838;2023-09-18T10:14:30;99225.00;;;23.60
75822;BMP180;64454;51.984;9.838;2023-09-18T10:17:12;99220.00;;;23.70
75822;BMP180;64454;51.984;9.838;2023-09-18T10:19:50;99220.00;;;23.90
75822;BMP180;64454;51.984;9.838;2023-09-18T10:22:30;99244.00;;;23.50
75822;BMP180;64454;51.984;9.838;2023-09-18T10:25:13;99246.00;;;23.30
75822;BMP180;64454;51.984;9.838;2023-09-18T10:27:45;99238.00;;;23.50
75822;BMP180;64454;51.984;9.838;2023-09-18T10:30:14;99236.00;;;23.40
75822;BMP180;64454;51.984;9.838;2023-09-18T10:32:45;99231.00;;;23.30
75822;BMP180;64454;51.984;9.838;2023-09-18T10:35:14;99235.00;;;23.10
75822;BMP180;64454;51.984;9.838;2023-09-18T10:37:42;99247.00;;;23.60
75822;BMP180;64454;51.984;9.838;2023-09-18T10:40:09;99237.00;;;23.40
75822;BMP180;64454;51.984;9.838;2023-09-18T10:42:40;99243.00;;;23.60
75822;BMP180;64454;51.984;9.838;2023-09-18T10:45:11;99258.00;;;23.80
75822;BMP180;64454;51.984;9.838;2023-09-18T10:47:41;99256.00;;;23.50
75822;BMP180;64454;51.984;9.838;2023-09-18T10:50:09;99248.00;;;23.50
75822;BMP180;64454;51.984;9.838;2023-09-18T10:52:42;99254.00;;;23.60
75822;BMP180;64454;51.984;9.838;2023-09-18T10:55:12;99274.00;;;23.50
75822;BMP180;64454;51.984;9.838;2023-09-18T10:57:50;99305.00;;;23.50
75822;BMP180;64454;51.984;9.838;2023-09-18T11:00:21;99294.00;;;23.40
75822;BMP180;64454;51.984;9.838;2023-09-18T11:02:52;99294.00;;;23.40
75822;BMP180;64454;51.984;9.838;2023-09-18T11:05:33;99306.00;;;23.30
75822;BMP180;64454;51.984;9.838;2023-09-18T11:08:26;99287.00;;;23.70
75822;BMP180;64454;51.984;9.838;2023-09-18T11:10:59;99260.00;;;25.00
75822;BMP180;64454;51.984;9.838;2023-09-18T11:13:34;99275.00;;;25.70
75822;BMP180;64454;51.984;9.838;2023-09-18T11:16:16;99276.00;;;26.30
75822;BMP180;64454;51.984;9.838;2023-09-18T11:18:48;99261.00;;;27.00
75822;BMP180;64454;51.984;9.838;2023-09-18T11:21:23;99262.00;;;28.60
75822;BMP180;64454;51.984;9.838;2023-09-18T11:23:59;99263.00;;;27.00
75822;BMP180;64454;51.984;9.838;2023-09-18T11:26:29;99275.00;;;26.20
75822;BMP180;64454;51.984;9.838;2023-09-18T11:28:59;99265.00;;;25.40
75822;BMP180;64454;51.984;9.838;2023-09-18T11:31:46;99266.00;;;24.80
75822;BMP180;64454;51.984;9.838;2023-09-18T11:34:21;99266.00;;;24.10
75822;BMP180;64454;51.984;9.838;2023-09-18T11:36:49;99282.00;;;23.80
75822;BMP180;64454;51.984;9.838;2023-09-18T11:39:37;99284.00;;;23.80
75822;BMP180;64454;51.984;9.838;2023-09-18T11:42:09;99275.00;;;23.90
75822;BMP180;64454;51.984;9.838;2023-09-18T11:44:37;99267.00;;;23.90
75822;BMP180;64454;51.984;9.838;2023-09-18T11:47:10;99255.00;;;24.00
75822;BMP180;64454;51.984;9.838;2023-09-18T11:49:47;99270.00;;;23.80
75822;BMP180;64454;51.984;9.838;2023-09-18T11:52:17;99255.00;;;24.20
75822;BMP180;64454;51.984;9.838;2023-09-18T11:54:45;99273.00;;;23.90
75822;BMP180;64454;51.984;9.838;2023-09-18T11:57:13;99285.00;;;24.20
75822;BMP180;64454;51.984;9.838;2023-09-18T11:59:42;99288.00;;;24.40
75822;BMP180;64454;51.984;9.838;2023-09-18T12:02:11;99288.00;;;24.50
75822;BMP180;64454;51.984;9.838;2023-09-18T12:04:46;99294.00;;;25.10
75822;BMP180;64454;51.984;9.838;2023-09-18T12:07:13;99309.00;;;25.30
75822;BMP180;64454;51.984;9.838;2023-09-18T12:09:41;99314.00;;;25.30
75822;BMP180;64454;51.984;9.838;2023-09-18T12:12:08;99308.00;;;25.20
75822;BMP180;64454;51.984;9.838;2023-09-18T12:14:36;99299.00;;;25.20
75822;BMP180;64454;51.984;9.838;2023-09-18T12:17:05;99287.00;;;24.90
75822;BMP180;64454;51.984;9.838;2023-09-18T12:19:34;99274.00;;;24.70
75822;BMP180;64454;51.984;9.838;2023-09-18T12:22:02;99264.00;;;24.50
75822;BMP180;64454;51.984;9.838;2023-09-18T12:24:29;99259.00;;;24.50
75822;BMP180;64454;51.984;9.838;2023-09-18T12:26:57;99263.00;;;24.60
75822;BMP180;64454;51.984;9.838;2023-09-18T12:29:26;99276.00;;;24.20
75822;BMP180;64454;51.984;9.838;2023-09-18T12:31:53;99285.00;;;24.10
75822;BMP180;64454;51.984;9.838;2023-09-18T12:34:21;99271.00;;;23.70
75822;BMP180;64454;51.984;9.838;2023-09-18T12:36:50;99279.00;;;23.90
75822;BMP180;64454;51.984;9.838;2023-09-18T12:39:20;99274.00;;;24.30
75822;BMP180;64454;51.984;9.838;2023-09-18T12:41:48;99279.00;;;24.20
75822;BMP180;64454;51.984;9.838;2023-09-18T12:44:17;99298.00;;;24.10
75822;BMP180;64454;51.984;9.838;2023-09-18T12:46:45;99282.00;;;23.80
75822;BMP180;64454;51.984;9.838;2023-09-18T12:49:20;99272.00;;;23.60
75822;BMP180;64454;51.984;9.838;2023-09-18T12:52:01;99272.00;;;23.60
75822;BMP180;64454;51.984;9.838;2023-09-18T12:54:40;99285.00;;;23.60
75822;BMP180;64454;51.984;9.838;2023-09-18T12:57:09;99278.00;;;23.50
75822;BMP180;64454;51.984;9.838;2023-09-18T12:59:37;99278.00;;;23.80
75822;BMP180;64454;51.984;9.838;2023-09-18T13:02:05;99281.00;;;24.00
75822;BMP180;64454;51.984;9.838;2023-09-18T13:04:33;99272.00;;;23.70
75822;BMP180;64454;51.984;9.838;2023-09-18T13:07:11;99270.00;;;23.70
75822;BMP180;64454;51.984;9.838;2023-09-18T13:09:38;99280.00;;;23.70
75822;BMP180;64454;51.984;9.838;2023-09-18T13:12:07;99267.00;;;23.90
75822;BMP180;64454;51.984;9.838;2023-09-18T13:14:59;99278.00;;;23.80
75822;BMP180;64454;51.984;9.838;2023-09-18T13:17:37;99279.00;;;23.70
75822;BMP180;64454;51.984;9.838;2023-09-18T13:20:16;99278.00;;;23.50
75822;BMP180;64454;51.984;9.838;2023-09-18T13:22:49;99289.00;;;23.40
75822;BMP180;64454;51.984;9.838;2023-09-18T13:25:20;99281.00;;;23.50
75822;BMP180;64454;51.984;9.838;2023-09-18T13:27:48;99286.00;;;23.30
75822;BMP180;64454;51.984;9.838;2023-09-18T13:30:15;99289.00;;;23.30
75822;BMP180;64454;51.984;9.838;2023-09-18T13:32:44;99305.00;;;23.10
75822;BMP180;64454;51.984;9.838;2023-09-18T13:35:12;99288.00;;;23.10
75822;BMP180;64454;51.984;9.838;2023-09-18T13:37:40;99279.00;;;23.30
75822;BMP180;64454;51.984;9.838;2023-09-18T13:40:11;99262.00;;;23.50
75822;BMP180;64454;51.984;9.838;2023-09-18T13:42:38;99267.00;;;23.10
75822;BMP180;64454;51.984;9.838;2023-09-18T13:45:07;99292.00;;;22.90
75822;BMP180;64454;51.984;9.838;2023-09-18T13:47:35;99271.00;;;22.90
75822;BMP180;64454;51.984;9.838;2023-09-18T13:50:04;99277.00;;;23.00
75822;BMP180;64454;51.984;9.838;2023-09-18T13:52:33;99280.00;;;23.00
75822;BMP180;64454;51.984;9.838;2023-09-18T13:55:02;99274.00;;;22.90
75822;BMP180;64454;51.984;9.838;2023-09-18T13:57:32;99276.00;;;22.70
75822;BMP180;64454;51.984;9.838;2023-09-18T14:00:01;99278.00;;;23.00
75822;BMP180;64454;51.984;9.838;2023-09-18T14:02:30;99272.00;;;23.30
75822;BMP180;64454;51.984;9.838;2023-09-18T14:04:58;99276.00;;;23.30
75822;BMP180;64454;51.984;9.838;2023-09-18T14:07:25;99278.00;;;23.10
75822;BMP180;64454;51.984;9.838;2023-09-18T14:09:52;99287.00;;;23.10
75822;BMP180;64454;51.984;9.838;2023-09-18T14:12:19;99284.00;;;23.10
75822;BMP180;64454;51.984;9.838;2023-09-18T14:14:47;99270.00;;;23.10
75822;BMP180;64454;51.984;9.838;2023-09-18T14:17:14;99275.00;;;23.20
75822;BMP180;64454;51.984;9.838;2023-09-18T14:19:43;99274.00;;;23.00
75822;BMP180;64454;51.984;9.838;2023-09-18T14:22:10;99262.00;;;23.20